sensor_id;sensor_type;location;lat;lon;timestamp;pressure;altitude;pressure_sealevel;temperature;humidity
65557;BME280;52200;53.490;14.376;2022-08-06T00:01:53;101865.72;;;15.18;98.16
65557;BME280;52200;53.490;14.376;2022-08-06T00:04:19;101865.94;;;15.08;99.35
65557;BME280;52200;53.490;14.376;2022-08-06T00:06:45;101860.94;;;15.05;98.94
65557;BME280;52200;53.490;14.376;2022-08-06T00:09:11;101860.06;;;15.05;98.28
65557;BME280;52200;53.490;14.376;2022-08-06T00:11:37;101861.09;;;14.99;98.33
65557;BME280;52200;53.490;14.376;2022-08-06T00:14:03;101859.00;;;15.13;97.65
65557;BME280;52200;53.490;14.376;2022-08-06T00:16:29;101858.69;;;14.93;98.66
65557;BME280;52200;53.490;14.376;2022-08-06T00:18:54;101862.66;;;14.72;99.79
65557;BME280;52200;53.490;14.376;2022-08-06T00:21:20;101874.53;;;14.74;100.00
65557;BME280;52200;53.490;14.376;2022-08-06T00:23:45;101873.56;;;14.78;99.15
65557;BME280;52200;53.490;14.376;2022-08-06T00:26:11;101887.38;;;14.71;100.00
65557;BME280;52200;53.490;14.376;2022-08-06T00:28:36;101885.63;;;14.73;99.58
65557;BME280;52200;53.490;14.376;2022-08-06T00:31:04;101882.47;;;14.62;100.00
65557;BME280;52200;53.490;14.376;2022-08-06T00:33:30;101873.00;;;14.67;100.00
65557;BME280;52200;53.490;14.376;2022-08-06T00:35:56;101873.81;;;14.67;99.97
65557;BME280;52200;53.490;14.376;2022-08-06T00:38:21;101874.84;;;14.60;99.93
65557;BME280;52200;53.490;14.376;2022-08-06T00:40:48;101878.25;;;14.61;100.00
65557;BME280;52200;53.490;14.376;2022-08-06T00:43:13;101886.00;;;14.58;99.71
65557;BME280;52200;53.490;14.376;2022-08-06T00:45:39;101880.03;;;14.57;99.78
65557;BME280;52200;53.490;14.376;2022-08-06T00:48:04;101895.56;;;14.49;100.00
65557;BME280;52200;53.490;14.376;2022-08-06T00:50:31;101905.84;;;14.46;100.00
65557;BME280;52200;53.490;14.376;2022-08-06T00:52:56;101895.53;;;14.51;100.00
65557;BME280;52200;53.490;14.376;2022-08-06T00:55:22;101909.94;;;14.54;99.58
65557;BME280;52200;53.490;14.376;2022-08-06T00:57:48;101894.69;;;14.50;99.33
65557;BME280;52200;53.490;14.376;2022-08-06T01:00:14;101918.44;;;14.56;99.65
65557;BME280;52200;53.490;14.376;2022-08-06T01:02:39;101935.91;;;14.38;100.00
65557;BME280;52200;53.490;14.376;2022-08-06T01:05:05;101923.91;;;14.40;100.00
65557;BME280;52200;53.490;14.376;2022-08-06T01:07:31;101927.03;;;14.51;99.54
65557;BME280;52200;53.490;14.376;2022-08-06T01:09:57;101936.69;;;14.40;100.00
65557;BME280;52200;53.490;14.376;2022-08-06T01:12:22;101926.84;;;14.61;99.04
65557;BME280;52200;53.490;14.376;2022-08-06T01:14:47;101923.63;;;14.52;99.08
65557;BME280;52200;53.490;14.376;2022-08-06T01:17:18;101928.81;;;14.49;99.69
65557;BME280;52200;53.490;14.376;2022-08-06T01:19:57;101921.56;;;14.31;99.78
65557;BME280;52200;53.490;14.376;2022-08-06T01:28:08;101915.72;;;14.26;100.00
65557;BME280;52200;53.490;14.376;2022-08-06T01:30:39;101916.69;;;14.20;99.64
65557;BME280;52200;53.490;14.376;2022-08-06T01:33:11;101925.19;;;14.22;99.30
65557;BME280;52200;53.490;14.376;2022-08-06T01:35:45;101930.16;;;14.28;98.87
65557;BME280;52200;53.490;14.376;2022-08-06T01:38:44;101908.34;;;14.12;98.29
65557;BME280;52200;53.490;14.376;2022-08-06T01:41:14;101938.59;;;14.32;98.47
65557;BME280;52200;53.490;14.376;2022-08-06T01:44:05;101936.03;;;14.32;98.00
65557;BME280;52200;53.490;14.376;2022-08-06T01:46:34;101942.81;;;14.33;97.81
65557;BME280;52200;53.490;14.376;2022-08-06T01:49:01;101938.88;;;14.19;97.57
65557;BME280;52200;53.490;14.376;2022-08-06T01:51:28;101939.78;;;14.15;97.62
65557;BME280;52200;53.490;14.376;2022-08-06T01:53:55;101951.63;;;14.21;96.83
65557;BME280;52200;53.490;14.376;2022-08-06T01:56:22;101946.81;;;14.07;97.14
65557;BME280;52200;53.490;14.376;2022-08-06T01:58:49;101973.28;;;14.03;96.99
65557;BME280;52200;53.490;14.376;2022-08-06T02:01:18;101969.88;;;14.04;96.61
65557;BME280;52200;53.490;14.376;2022-08-06T02:03:49;101973.31;;;14.01;96.91
65557;BME280;52200;53.490;14.376;2022-08-06T02:06:19;101973.38;;;14.00;95.91
65557;BME280;52200;53.490;14.376;2022-08-06T02:08:47;101938.47;;;13.99;95.33
65557;BME280;52200;53.490;14.376;2022-08-06T02:11:14;101973.19;;;14.08;95.27
65557;BME280;52200;53.490;14.376;2022-08-06T02:13:40;101970.19;;;13.89;96.22
65557;BME280;52200;53.490;14.376;2022-08-06T02:16:09;101983.75;;;13.92;96.15
65557;BME280;52200;53.490;14.376;2022-08-06T02:18:39;101981.19;;;13.92;95.84
65557;BME280;52200;53.490;14.376;2022-08-06T02:21:14;101986.47;;;13.83;96.07
65557;BME280;52200;53.490;14.376;2022-08-06T02:23:40;101979.72;;;13.80;95.91
65557;BME280;52200;53.490;14.376;2022-08-06T02:26:07;101986.63;;;13.75;95.89
65557;BME280;52200;53.490;14.376;2022-08-06T02:28:34;101982.34;;;13.76;95.78
65557;BME280;52200;53.490;14.376;2022-08-06T02:31:01;101974.00;;;13.69;95.82
65557;BME280;52200;53.490;14.376;2022-08-06T02:33:27;101983.56;;;13.58;96.60
65557;BME280;52200;53.490;14.376;2022-08-06T02:36:20;101978.34;;;13.64;96.30
65557;BME280;52200;53.490;14.376;2022-08-06T02:41:20;101979.53;;;13.46;96.80
65557;BME280;52200;53.490;14.376;2022-08-06T02:44:15;101982.00;;;13.50;96.52
65557;BME280;52200;53.490;14.376;2022-08-06T02:46:49;101974.50;;;13.43;97.16
65557;BME280;52200;53.490;14.376;2022-08-06T02:49:19;101985.31;;;13.56;96.47
65557;BME280;52200;53.490;14.376;2022-08-06T02:51:52;101990.72;;;13.38;97.52
65557;BME280;52200;53.490;14.376;2022-08-06T02:54:23;101994.13;;;13.39;97.29
65557;BME280;52200;53.490;14.376;2022-08-06T02:56:56;101999.41;;;13.25;97.50
65557;BME280;52200;53.490;14.376;2022-08-06T02:59:27;101981.84;;;13.10;97.49
65557;BME280;52200;53.490;14.376;2022-08-06T03:01:57;101990.19;;;13.18;97.62
65557;BME280;52200;53.490;14.376;2022-08-06T03:04:28;101989.31;;;13.20;97.52
65557;BME280;52200;53.490;14.376;2022-08-06T03:06:56;101999.72;;;13.08;98.29
65557;BME280;52200;53.490;14.376;2022-08-06T03:09:22;101991.97;;;13.14;98.23
65557;BME280;52200;53.490;14.376;2022-08-06T03:11:50;102006.06;;;13.34;97.67
65557;BME280;52200;53.490;14.376;2022-08-06T03:14:17;102011.28;;;13.28;97.11
65557;BME280;52200;53.490;14.376;2022-08-06T03:16:43;102013.69;;;13.38;96.27
65557;BME280;52200;53.490;14.376;2022-08-06T03:19:11;102010.31;;;13.36;96.03
65557;BME280;52200;53.490;14.376;2022-08-06T03:21:39;102020.63;;;13.30;96.79
65557;BME280;52200;53.490;14.376;2022-08-06T03:24:07;102026.75;;;13.18;97.73
65557;BME280;52200;53.490;14.376;2022-08-06T03:26:34;102035.00;;;13.34;96.80
65557;BME280;52200;53.490;14.376;2022-08-06T03:29:02;102036.00;;;13.26;97.00
65557;BME280;52200;53.490;14.376;2022-08-06T03:31:29;102043.78;;;13.18;97.36
65557;BME280;52200;53.490;14.376;2022-08-06T03:33:56;102035.53;;;13.02;97.87
65557;BME280;52200;53.490;14.376;2022-08-06T03:36:23;102055.09;;;13.01;98.96
65557;BME280;52200;53.490;14.376;2022-08-06T03:38:58;102056.13;;;12.91;98.87
65557;BME280;52200;53.490;14.376;2022-08-06T03:41:27;102060.31;;;12.94;98.55
65557;BME280;52200;53.490;14.376;2022-08-06T03:43:54;102064.41;;;13.04;98.04
65557;BME280;52200;53.490;14.376;2022-08-06T03:46:24;102076.22;;;13.11;97.23
65557;BME280;52200;53.490;14.376;2022-08-06T03:48:52;102077.66;;;13.28;96.03
65557;BME280;52200;53.490;14.376;2022-08-06T03:51:21;102077.09;;;13.09;96.68
65557;BME280;52200;53.490;14.376;2022-08-06T03:53:49;102079.69;;;13.07;97.16
65557;BME280;52200;53.490;14.376;2022-08-06T03:56:20;102087.88;;;13.26;96.27
65557;BME280;52200;53.490;14.376;2022-08-06T03:58:50;102084.34;;;13.35;95.29
65557;BME280;52200;53.490;14.376;2022-08-06T04:01:23;102085.66;;;13.06;96.59
65557;BME280;52200;53.490;14.376;2022-08-06T04:03:52;102091.50;;;13.14;96.33
65557;BME280;52200;53.490;14.376;2022-08-06T04:06:20;102091.28;;;13.27;95.41
65557;BME280;52200;53.490;14.376;2022-08-06T04:08:48;102094.59;;;13.33;95.06
65557;BME280;52200;53.490;14.376;2022-08-06T04:11:15;102103.41;;;13.12;96.15
65557;BME280;52200;53.490;14.376;2022-08-06T04:13:42;102110.06;;;13.22;95.98
65557;BME280;52200;53.490;14.376;2022-08-06T04:16:10;102116.22;;;13.07;95.52
65557;BME280;52200;53.490;14.376;2022-08-06T04:18:39;102118.75;;;13.09;95.98
65557;BME280;52200;53.490;14.376;2022-08-06T04:21:10;102117.78;;;13.18;95.47
65557;BME280;52200;53.490;14.376;2022-08-06T04:23:37;102129.66;;;13.22;95.89
65557;BME280;52200;53.490;14.376;2022-08-06T04:26:06;102130.47;;;13.22;95.73
65557;BME280;52200;53.490;14.376;2022-08-06T04:28:35;102128.41;;;13.49;93.74
65557;BME280;52200;53.490;14.376;2022-08-06T04:31:02;102133.19;;;13.68;92.64
65557;BME280;52200;53.490;14.376;2022-08-06T04:33:29;102133.34;;;13.59;92.89
65557;BME280;52200;53.490;14.376;2022-08-06T04:35:58;102138.34;;;13.65;92.30
65557;BME280;52200;53.490;14.376;2022-08-06T04:38:26;102143.44;;;13.65;92.22
65557;BME280;52200;53.490;14.376;2022-08-06T04:40:52;102136.66;;;13.65;92.21
65557;BME280;52200;53.490;14.376;2022-08-06T04:43:19;102147.59;;;13.74;91.78
65557;BME280;52200;53.490;14.376;2022-08-06T04:45:44;102150.00;;;13.81;91.47
65557;BME280;52200;53.490;14.376;2022-08-06T04:48:11;102159.53;;;13.72;91.83
65557;BME280;52200;53.490;14.376;2022-08-06T04:50:38;102156.09;;;13.74;91.59
65557;BME280;52200;53.490;14.376;2022-08-06T04:53:08;102158.75;;;13.68;91.63
65557;BME280;52200;53.490;14.376;2022-08-06T04:55:34;102159.66;;;13.62;92.45
65557;BME280;52200;53.490;14.376;2022-08-06T04:58:01;102166.22;;;13.79;90.88
65557;BME280;52200;53.490;14.376;2022-08-06T05:00:27;102179.84;;;13.79;91.90
65557;BME280;52200;53.490;14.376;2022-08-06T05:02:52;102177.16;;;13.85;90.85
65557;BME280;52200;53.490;14.376;2022-08-06T05:05:20;102181.44;;;13.83;91.10
65557;BME280;52200;53.490;14.376;2022-08-06T05:07:47;102180.56;;;13.88;91.00
65557;BME280;52200;53.490;14.376;2022-08-06T05:10:15;102190.16;;;13.73;90.96
65557;BME280;52200;53.490;14.376;2022-08-06T05:12:45;102191.66;;;13.85;90.93
65557;BME280;52200;53.490;14.376;2022-08-06T05:15:34;102203.78;;;13.74;91.34
65557;BME280;52200;53.490;14.376;2022-08-06T05:18:07;102199.59;;;13.68;92.01
65557;BME280;52200;53.490;14.376;2022-08-06T05:20:37;102195.81;;;13.91;90.54
65557;BME280;52200;53.490;14.376;2022-08-06T05:23:15;102203.44;;;13.94;90.53
65557;BME280;52200;53.490;14.376;2022-08-06T05:25:43;102212.38;;;13.68;91.31
65557;BME280;52200;53.490;14.376;2022-08-06T05:28:09;102211.34;;;13.78;91.25
65557;BME280;52200;53.490;14.376;2022-08-06T05:30:42;102202.13;;;13.69;91.06
65557;BME280;52200;53.490;14.376;2022-08-06T05:33:07;102213.69;;;13.92;90.88
65557;BME280;52200;53.490;14.376;2022-08-06T05:35:33;102214.38;;;14.00;90.50
65557;BME280;52200;53.490;14.376;2022-08-06T05:38:00;102226.22;;;14.06;89.49
65557;BME280;52200;53.490;14.376;2022-08-06T05:40:26;102224.16;;;14.27;89.73
65557;BME280;52200;53.490;14.376;2022-08-06T05:42:58;102223.47;;;14.64;87.87
65557;BME280;52200;53.490;14.376;2022-08-06T05:45:24;102225.34;;;14.56;86.87
65557;BME280;52200;53.490;14.376;2022-08-06T05:47:49;102237.91;;;14.21;87.31
65557;BME280;52200;53.490;14.376;2022-08-06T05:50:18;102234.59;;;14.14;87.98
65557;BME280;52200;53.490;14.376;2022-08-06T05:52:54;102239.53;;;14.25;88.28
65557;BME280;52200;53.490;14.376;2022-08-06T05:55:34;102240.69;;;14.56;87.72
65557;BME280;52200;53.490;14.376;2022-08-06T05:58:07;102240.38;;;14.26;87.54
65557;BME280;52200;53.490;14.376;2022-08-06T06:00:35;102241.28;;;14.22;88.55
65557;BME280;52200;53.490;14.376;2022-08-06T06:03:05;102242.31;;;14.60;87.39
65557;BME280;52200;53.490;14.376;2022-08-06T06:05:32;102260.88;;;14.71;86.48
65557;BME280;52200;53.490;14.376;2022-08-06T06:07:57;102270.81;;;14.87;85.40
65557;BME280;52200;53.490;14.376;2022-08-06T06:10:25;102269.72;;;15.39;83.62
65557;BME280;52200;53.490;14.376;2022-08-06T06:12:51;102273.88;;;15.83;82.41
65557;BME280;52200;53.490;14.376;2022-08-06T06:15:17;102270.94;;;16.66;79.17
65557;BME280;52200;53.490;14.376;2022-08-06T06:23:03;102267.16;;;17.93;73.51
65557;BME280;52200;53.490;14.376;2022-08-06T06:25:46;102286.38;;;17.54;74.56
65557;BME280;52200;53.490;14.376;2022-08-06T06:28:16;102280.03;;;17.09;75.13
65557;BME280;52200;53.490;14.376;2022-08-06T06:30:53;102284.94;;;16.54;76.63
65557;BME280;52200;53.490;14.376;2022-08-06T06:33:36;102289.75;;;15.99;78.04
65557;BME280;52200;53.490;14.376;2022-08-06T06:41:55;102304.44;;;15.92;79.50
65557;BME280;52200;53.490;14.376;2022-08-06T06:44:31;102303.47;;;15.98;78.38
65557;BME280;52200;53.490;14.376;2022-08-06T06:47:22;102304.06;;;16.07;77.25
65557;BME280;52200;53.490;14.376;2022-08-06T06:50:14;102313.13;;;16.21;76.20
65557;BME280;52200;53.490;14.376;2022-08-06T06:52:44;102313.69;;;16.32;75.61
65557;BME280;52200;53.490;14.376;2022-08-06T06:57:54;102313.59;;;16.70;75.84
65557;BME280;52200;53.490;14.376;2022-08-06T07:00:21;102316.75;;;16.80;74.73
65557;BME280;52200;53.490;14.376;2022-08-06T07:02:48;102308.56;;;16.98;74.16
65557;BME280;52200;53.490;14.376;2022-08-06T07:05:15;102321.13;;;17.09;73.72
65557;BME280;52200;53.490;14.376;2022-08-06T07:07:42;102326.59;;;16.97;73.77
65557;BME280;52200;53.490;14.376;2022-08-06T07:10:11;102323.28;;;17.23;74.32
65557;BME280;52200;53.490;14.376;2022-08-06T07:12:40;102332.53;;;17.57;72.85
65557;BME280;52200;53.490;14.376;2022-08-06T07:15:08;102328.53;;;17.77;72.34
65557;BME280;52200;53.490;14.376;2022-08-06T07:17:36;102332.28;;;17.66;72.57
65557;BME280;52200;53.490;14.376;2022-08-06T07:20:06;102333.63;;;17.50;72.17
65557;BME280;52200;53.490;14.376;2022-08-06T07:22:34;102343.47;;;17.92;71.60
65557;BME280;52200;53.490;14.376;2022-08-06T07:25:03;102335.16;;;18.37;69.82
65557;BME280;52200;53.490;14.376;2022-08-06T07:27:38;102344.63;;;18.37;68.69
65557;BME280;52200;53.490;14.376;2022-08-06T07:30:05;102340.78;;;17.97;68.31
65557;BME280;52200;53.490;14.376;2022-08-06T07:32:35;102346.94;;;17.91;68.46
65557;BME280;52200;53.490;14.376;2022-08-06T07:35:03;102353.41;;;18.04;69.01
65557;BME280;52200;53.490;14.376;2022-08-06T07:37:31;102346.84;;;17.94;67.07
65557;BME280;52200;53.490;14.376;2022-08-06T07:40:00;102351.72;;;18.03;67.11
65557;BME280;52200;53.490;14.376;2022-08-06T07:42:26;102359.50;;;18.00;67.40
65557;BME280;52200;53.490;14.376;2022-08-06T07:44:58;102353.00;;;18.17;66.10
65557;BME280;52200;53.490;14.376;2022-08-06T07:47:34;102353.47;;;18.55;65.41
65557;BME280;52200;53.490;14.376;2022-08-06T07:50:01;102361.06;;;18.33;65.19
65557;BME280;52200;53.490;14.376;2022-08-06T07:52:28;102368.22;;;18.75;65.34
65557;BME280;52200;53.490;14.376;2022-08-06T07:54:55;102363.19;;;19.21;63.59
65557;BME280;52200;53.490;14.376;2022-08-06T07:57:23;102375.03;;;19.01;63.46
65557;BME280;52200;53.490;14.376;2022-08-06T07:59:49;102369.31;;;18.43;62.71
65557;BME280;52200;53.490;14.376;2022-08-06T08:02:16;102375.47;;;18.64;63.18
65557;BME280;52200;53.490;14.376;2022-08-06T08:04:42;102378.25;;;18.58;61.35
65557;BME280;52200;53.490;14.376;2022-08-06T08:07:27;102382.25;;;18.66;61.90
65557;BME280;52200;53.490;14.376;2022-08-06T08:09:54;102377.88;;;18.68;62.54
65557;BME280;52200;53.490;14.376;2022-08-06T08:12:21;102389.69;;;18.99;63.17
65557;BME280;52200;53.490;14.376;2022-08-06T08:14:48;102395.00;;;19.66;62.17
65557;BME280;52200;53.490;14.376;2022-08-06T08:17:15;102388.97;;;18.71;60.56
65557;BME280;52200;53.490;14.376;2022-08-06T08:19:41;102396.66;;;18.97;60.96
65557;BME280;52200;53.490;14.376;2022-08-06T08:24:37;102394.84;;;18.99;58.27
65557;BME280;52200;53.490;14.376;2022-08-06T08:27:04;102399.84;;;19.04;57.91
65557;BME280;52200;53.490;14.376;2022-08-06T08:29:33;102399.13;;;19.48;57.80
65557;BME280;52200;53.490;14.376;2022-08-06T08:32:00;102399.19;;;19.69;55.56
65557;BME280;52200;53.490;14.376;2022-08-06T08:34:25;102398.31;;;19.70;55.06
65557;BME280;52200;53.490;14.376;2022-08-06T08:36:51;102402.25;;;19.78;55.23
65557;BME280;52200;53.490;14.376;2022-08-06T08:39:17;102401.00;;;19.44;54.97
65557;BME280;52200;53.490;14.376;2022-08-06T08:41:55;102399.44;;;19.62;55.75
65557;BME280;52200;53.490;14.376;2022-08-06T08:44:24;102406.69;;;19.99;55.30
65557;BME280;52200;53.490;14.376;2022-08-06T08:46:51;102403.44;;;19.93;57.02
65557;BME280;52200;53.490;14.376;2022-08-06T08:49:27;102407.78;;;19.69;56.13
65557;BME280;52200;53.490;14.376;2022-08-06T08:51:53;102414.72;;;19.45;55.61
65557;BME280;52200;53.490;14.376;2022-08-06T08:54:22;102410.41;;;19.91;55.11
65557;BME280;52200;53.490;14.376;2022-08-06T08:56:49;102409.94;;;19.80;54.93
65557;BME280;52200;53.490;14.376;2022-08-06T08:59:15;102417.97;;;20.39;53.59
65557;BME280;52200;53.490;14.376;2022-08-06T09:01:41;102410.75;;;20.68;53.16
65557;BME280;52200;53.490;14.376;2022-08-06T09:04:07;102403.44;;;20.79;52.29
65557;BME280;52200;53.490;14.376;2022-08-06T09:06:34;102410.41;;;20.34;52.19
65557;BME280;52200;53.490;14.376;2022-08-06T09:09:02;102407.78;;;20.56;51.71
65557;BME280;52200;53.490;14.376;2022-08-06T09:11:31;102411.13;;;21.00;51.82
65557;BME280;52200;53.490;14.376;2022-08-06T09:14:02;102418.28;;;21.52;51.43
65557;BME280;52200;53.490;14.376;2022-08-06T09:16:31;102403.72;;;21.87;50.18
65557;BME280;52200;53.490;14.376;2022-08-06T09:18:58;102416.47;;;21.73;48.51
65557;BME280;52200;53.490;14.376;2022-08-06T09:21:23;102414.47;;;21.22;48.24
65557;BME280;52200;53.490;14.376;2022-08-06T09:23:49;102413.34;;;20.88;49.96
65557;BME280;52200;53.490;14.376;2022-08-06T09:26:14;102415.41;;;20.80;50.36
65557;BME280;52200;53.490;14.376;2022-08-06T09:28:42;102414.25;;;20.67;50.17
65557;BME280;52200;53.490;14.376;2022-08-06T09:31:16;102410.69;;;20.90;50.46
65557;BME280;52200;53.490;14.376;2022-08-06T09:33:59;102420.75;;;20.55;50.18
65557;BME280;52200;53.490;14.376;2022-08-06T09:36:26;102415.84;;;20.90;51.01
65557;BME280;52200;53.490;14.376;2022-08-06T09:38:59;102420.69;;;21.37;50.55
65557;BME280;52200;53.490;14.376;2022-08-06T09:41:27;102424.66;;;20.86;49.77
65557;BME280;52200;53.490;14.376;2022-08-06T09:43:54;102421.63;;;21.16;49.07
65557;BME280;52200;53.490;14.376;2022-08-06T09:46:47;102429.25;;;20.79;49.11
65557;BME280;52200;53.490;14.376;2022-08-06T09:49:14;102426.34;;;20.87;51.31
65557;BME280;52200;53.490;14.376;2022-08-06T09:51:40;102425.03;;;20.97;50.31
65557;BME280;52200;53.490;14.376;2022-08-06T09:54:08;102421.94;;;20.68;49.96
65557;BME280;52200;53.490;14.376;2022-08-06T09:56:35;102425.91;;;21.36;50.15
65557;BME280;52200;53.490;14.376;2022-08-06T09:59:06;102431.09;;;21.74;48.86
65557;BME280;52200;53.490;14.376;2022-08-06T10:01:46;102424.03;;;22.14;48.00
65557;BME280;52200;53.490;14.376;2022-08-06T10:04:14;102425.66;;;21.98;48.91
65557;BME280;52200;53.490;14.376;2022-08-06T10:06:57;102431.31;;;22.06;48.16
65557;BME280;52200;53.490;14.376;2022-08-06T10:09:23;102425.59;;;22.53;46.44
65557;BME280;52200;53.490;14.376;2022-08-06T10:11:50;102427.69;;;22.28;48.11
65557;BME280;52200;53.490;14.376;2022-08-06T10:14:32;102431.78;;;22.14;46.88
65557;BME280;52200;53.490;14.376;2022-08-06T10:17:12;102437.16;;;21.73;47.88
65557;BME280;52200;53.490;14.376;2022-08-06T10:19:40;102442.63;;;21.48;48.98
65557;BME280;52200;53.490;14.376;2022-08-06T10:22:17;102437.59;;;21.45;49.36
65557;BME280;52200;53.490;14.376;2022-08-06T10:24:45;102434.16;;;20.85;49.24
65557;BME280;52200;53.490;14.376;2022-08-06T10:27:13;102438.31;;;20.46;49.82
65557;BME280;52200;53.490;14.376;2022-08-06T10:29:49;102439.75;;;20.95;49.83
65557;BME280;52200;53.490;14.376;2022-08-06T10:32:18;102438.16;;;21.89;48.37
65557;BME280;52200;53.490;14.376;2022-08-06T10:34:49;102433.59;;;21.95;47.69
65557;BME280;52200;53.490;14.376;2022-08-06T10:37:17;102428.19;;;21.99;47.30
65557;BME280;52200;53.490;14.376;2022-08-06T10:39:47;102435.38;;;21.75;49.03
65557;BME280;52200;53.490;14.376;2022-08-06T10:42:14;102429.03;;;22.00;48.90
65557;BME280;52200;53.490;14.376;2022-08-06T10:44:40;102430.19;;;22.12;47.02
65557;BME280;52200;53.490;14.376;2022-08-06T10:47:07;102428.69;;;22.60;48.28
65557;BME280;52200;53.490;14.376;2022-08-06T10:49:33;102426.75;;;22.29;48.17
65557;BME280;52200;53.490;14.376;2022-08-06T10:51:59;102433.94;;;21.10;49.90
65557;BME280;52200;53.490;14.376;2022-08-06T10:54:26;102433.75;;;21.34;50.74
65557;BME280;52200;53.490;14.376;2022-08-06T10:56:53;102428.19;;;21.99;48.72
65557;BME280;52200;53.490;14.376;2022-08-06T10:59:20;102436.88;;;21.79;48.69
65557;BME280;52200;53.490;14.376;2022-08-06T11:05:02;102431.22;;;21.90;49.24
65557;BME280;52200;53.490;14.376;2022-08-06T11:10:39;102431.16;;;21.53;51.71
65557;BME280;52200;53.490;14.376;2022-08-06T11:13:30;102422.59;;;21.72;50.23
65557;BME280;52200;53.490;14.376;2022-08-06T11:15:56;102432.06;;;21.90;51.13
65557;BME280;52200;53.490;14.376;2022-08-06T11:18:22;102426.59;;;21.97;50.58
65557;BME280;52200;53.490;14.376;2022-08-06T11:20:51;102418.19;;;22.46;49.44
65557;BME280;52200;53.490;14.376;2022-08-06T11:23:28;102407.84;;;22.79;48.81
65557;BME280;52200;53.490;14.376;2022-08-06T11:26:02;102416.19;;;22.51;49.04
65557;BME280;52200;53.490;14.376;2022-08-06T11:30:56;102404.94;;;22.85;48.96
65557;BME280;52200;53.490;14.376;2022-08-06T11:41:22;102398.59;;;23.57;46.73
65557;BME280;52200;53.490;14.376;2022-08-06T11:46:29;102397.78;;;22.91;47.66
65557;BME280;52200;53.490;14.376;2022-08-06T11:54:19;102415.00;;;21.48;50.14
65557;BME280;52200;53.490;14.376;2022-08-06T11:59:37;102408.34;;;21.23;52.27
65557;BME280;52200;53.490;14.376;2022-08-06T12:02:08;102417.88;;;21.42;51.68
65557;BME280;52200;53.490;14.376;2022-08-06T12:10:03;102401.38;;;23.04;47.95
65557;BME280;52200;53.490;14.376;2022-08-06T12:12:49;102396.78;;;23.89;46.53
65557;BME280;52200;53.490;14.376;2022-08-06T12:15:35;102392.31;;;23.45;47.49
65557;BME280;52200;53.490;14.376;2022-08-06T12:18:01;102395.56;;;23.16;48.42
65557;BME280;52200;53.490;14.376;2022-08-06T12:20:30;102397.78;;;22.40;50.49
65557;BME280;52200;53.490;14.376;2022-08-06T12:22:57;102406.13;;;21.54;51.21
65557;BME280;52200;53.490;14.376;2022-08-06T12:25:53;102406.47;;;21.08;52.84
65557;BME280;52200;53.490;14.376;2022-08-06T12:28:17;102417.31;;;21.16;53.10
65557;BME280;52200;53.490;14.376;2022-08-06T12:30:50;102412.13;;;21.54;52.11
65557;BME280;52200;53.490;14.376;2022-08-06T12:33:19;102410.69;;;21.68;51.72
65557;BME280;52200;53.490;14.376;2022-08-06T12:35:51;102409.19;;;21.43;51.83
65557;BME280;52200;53.490;14.376;2022-08-06T12:38:18;102406.59;;;22.00;51.59
65557;BME280;52200;53.490;14.376;2022-08-06T12:40:54;102409.69;;;22.07;51.33
65557;BME280;52200;53.490;14.376;2022-08-06T12:43:20;102401.78;;;22.10;49.79
65557;BME280;52200;53.490;14.376;2022-08-06T12:45:46;102403.31;;;21.78;50.72
65557;BME280;52200;53.490;14.376;2022-08-06T12:48:12;102405.31;;;22.27;50.72
65557;BME280;52200;53.490;14.376;2022-08-06T12:50:41;102406.66;;;22.69;47.35
65557;BME280;52200;53.490;14.376;2022-08-06T12:53:10;102403.63;;;22.78;46.05
65557;BME280;52200;53.490;14.376;2022-08-06T12:55:52;102396.59;;;23.30;46.02
65557;BME280;52200;53.490;14.376;2022-08-06T12:58:20;102403.91;;;23.55;45.85
65557;BME280;52200;53.490;14.376;2022-08-06T13:00:54;102413.69;;;23.34;47.04
65557;BME280;52200;53.490;14.376;2022-08-06T13:03:23;102404.28;;;23.31;47.52
65557;BME280;52200;53.490;14.376;2022-08-06T13:05:50;102410.94;;;23.03;47.37
65557;BME280;52200;53.490;14.376;2022-08-06T13:08:16;102414.66;;;22.64;48.24
65557;BME280;52200;53.490;14.376;2022-08-06T13:10:51;102420.34;;;22.01;47.61
65557;BME280;52200;53.490;14.376;2022-08-06T13:13:17;102418.47;;;21.85;46.83
65557;BME280;52200;53.490;14.376;2022-08-06T13:16:11;102418.38;;;21.31;47.15
65557;BME280;52200;53.490;14.376;2022-08-06T13:18:38;102420.28;;;21.66;46.99
65557;BME280;52200;53.490;14.376;2022-08-06T13:21:15;102401.94;;;22.07;47.40
65557;BME280;52200;53.490;14.376;2022-08-06T13:23:45;102408.88;;;22.06;44.91
65557;BME280;52200;53.490;14.376;2022-08-06T13:26:24;102407.88;;;22.09;45.36
65557;BME280;52200;53.490;14.376;2022-08-06T13:31:38;102401.94;;;22.77;45.89
65557;BME280;52200;53.490;14.376;2022-08-06T13:34:11;102404.00;;;22.35;44.67
65557;BME280;52200;53.490;14.376;2022-08-06T13:36:39;102398.69;;;22.38;44.35
65557;BME280;52200;53.490;14.376;2022-08-06T13:39:28;102403.34;;;22.83;44.95
65557;BME280;52200;53.490;14.376;2022-08-06T13:44:34;102405.09;;;22.31;46.55
65557;BME280;52200;53.490;14.376;2022-08-06T13:47:00;102411.69;;;22.02;46.68
65557;BME280;52200;53.490;14.376;2022-08-06T13:49:26;102408.41;;;21.98;46.96
65557;BME280;52200;53.490;14.376;2022-08-06T13:51:52;102411.31;;;21.54;46.95
65557;BME280;52200;53.490;14.376;2022-08-06T13:54:17;102411.59;;;21.67;45.54
65557;BME280;52200;53.490;14.376;2022-08-06T13:56:43;102413.97;;;21.52;45.29